Time;durP1;ratioP1;P1;durP2;ratioP2;P2;SDS_P1;SDS_P2;PMS_P1;PMS_P2;Temp;Humidity;BMP_temperature;BMP_pressure;BME280_temperature;BME280_humidity;BME280_pressure;Samples;Min_cycle;Max_cycle;Signal;HPM_P1;HPM_P2
2021/12/05 00:21:40;;;;;;;65.82;20.67;;;;;;;;;;5001261;28;20050;-61
2021/12/05 00:26:49;;;;;;;47.80;15.65;;;;;;;;;;5020840;28;20046;-61
2021/12/05 00:35:32;;;;;;;35.33;14.20;;;;;;;;;;5009611;28;20084;-61
2021/12/05 00:40:42;;;;;;;36.85;13.57;;;;;;;;;;5020654;28;20073;-61
2021/12/05 00:56:39;;;;;;;37.03;13.70;;;;;;;;;;5021766;28;20048;-60
2021/12/05 01:07:29;;;;;;;33.10;10.85;;;;;;;;;;5097368;28;20044;-60
2021/12/05 01:17:38;;;;;;;21.80;9.25;;;;;;;;;;5083911;28;20044;-60
2021/12/05 01:20:09;;;;;;;23.08;8.70;;;;;;;;;;5083728;28;20100;-60
2021/12/05 01:22:40;;;;;;;20.10;8.38;;;;;;;;;;5083629;28;20057;-60
2021/12/05 01:25:36;;;;;;;21.58;8.23;;;;;;;;;;5091990;28;20052;-60
2021/12/05 01:28:06;;;;;;;25.88;9.38;;;;;;;;;;5082823;28;20119;-60
2021/12/05 01:33:40;;;;;;;20.67;8.80;;;;;;;;;;5101211;28;20056;-60
2021/12/05 01:36:12;;;;;;;22.90;8.60;;;;;;;;;;5098592;28;20048;-60
2021/12/05 01:49:33;;;;;;;20.37;8.60;;;;;;;;;;5106862;28;20055;-60
2021/12/05 01:57:53;;;;;;;22.00;10.27;;;;;;;;;;5107177;28;20316;-60
2021/12/05 02:11:36;;;;;;;26.08;10.25;;;;;;;;;;5106587;28;20438;-60
2021/12/05 02:33:24;;;;;;;23.48;11.10;;;;;;;;;;5089669;28;20044;-60
2021/12/05 02:36:22;;;;;;;22.88;11.07;;;;;;;;;;5098694;28;20059;-60
2021/12/05 02:39:09;;;;;;;19.58;10.07;;;;;;;;;;5102856;28;20051;-60
2021/12/05 02:41:42;;;;;;;28.48;11.88;;;;;;;;;;5097425;28;20127;-60
2021/12/05 02:44:22;;;;;;;24.70;11.27;;;;;;;;;;5098714;28;20072;-60
2021/12/05 02:47:02;;;;;;;26.85;11.60;;;;;;;;;;5105639;28;20094;-60
2021/12/05 02:49:30;;;;;;;22.70;11.95;;;;;;;;;;5098524;28;20041;-60
2021/12/05 02:52:00;;;;;;;21.38;11.57;;;;;;;;;;5087585;28;20454;-60
2021/12/05 02:54:28;;;;;;;23.67;10.98;;;;;;;;;;5089135;28;20103;-60
2021/12/05 02:56:55;;;;;;;29.10;12.70;;;;;;;;;;5106638;28;20123;-60
2021/12/05 02:59:48;;;;;;;27.88;12.50;;;;;;;;;;5106059;28;20047;-60
2021/12/05 03:02:13;;;;;;;32.53;12.75;;;;;;;;;;5105709;28;20423;-59
2021/12/05 03:04:43;;;;;;;29.92;12.88;;;;;;;;;;5106338;28;20495;-60
2021/12/05 03:07:10;;;;;;;20.77;11.40;;;;;;;;;;5105862;28;20420;-60
2021/12/05 03:09:37;;;;;;;30.15;12.73;;;;;;;;;;5105680;28;20087;-60
2021/12/05 03:12:04;;;;;;;20.92;11.77;;;;;;;;;;5104694;28;20122;-60
2021/12/05 03:14:30;;;;;;;31.10;12.68;;;;;;;;;;5105302;28;20062;-60
2021/12/05 03:16:56;;;;;;;24.55;12.05;;;;;;;;;;5105679;28;20052;-60
2021/12/05 03:19:22;;;;;;;26.23;12.95;;;;;;;;;;5104180;28;20044;-60
2021/12/05 03:21:50;;;;;;;26.50;13.48;;;;;;;;;;5103716;28;20398;-60
2021/12/05 03:24:17;;;;;;;34.55;14.98;;;;;;;;;;5104525;28;20044;-60
2021/12/05 03:26:44;;;;;;;26.25;12.05;;;;;;;;;;5105627;28;20105;-60
2021/12/05 03:29:11;;;;;;;23.27;12.13;;;;;;;;;;5104909;28;20071;-60
2021/12/05 03:31:38;;;;;;;26.00;12.40;;;;;;;;;;5104874;28;20048;-60
2021/12/05 03:34:05;;;;;;;25.00;12.90;;;;;;;;;;5105135;28;20107;-60
2021/12/05 03:36:31;;;;;;;31.70;13.93;;;;;;;;;;5104419;28;20289;-60
2021/12/05 03:38:58;;;;;;;27.25;13.15;;;;;;;;;;5104934;28;20048;-60
2021/12/05 03:41:24;;;;;;;27.73;12.68;;;;;;;;;;5105372;28;20564;-60
2021/12/05 03:43:52;;;;;;;27.15;13.88;;;;;;;;;;5103988;28;20104;-60
2021/12/05 03:46:19;;;;;;;30.05;14.10;;;;;;;;;;5104394;28;20052;-60
2021/12/05 03:48:48;;;;;;;36.67;14.02;;;;;;;;;;5104347;28;20051;-60
2021/12/05 03:51:16;;;;;;;28.42;14.02;;;;;;;;;;5102853;28;20082;-60
2021/12/05 03:53:43;;;;;;;36.63;14.65;;;;;;;;;;5104537;28;20043;-60
2021/12/05 03:56:09;;;;;;;31.40;13.85;;;;;;;;;;5104845;28;20098;-60
2021/12/05 03:58:36;;;;;;;32.05;12.02;;;;;;;;;;5104121;28;20111;-60
2021/12/05 04:01:03;;;;;;;34.78;14.23;;;;;;;;;;5104478;28;20096;-60
2021/12/05 04:03:30;;;;;;;28.60;13.95;;;;;;;;;;5087597;28;20046;-60
2021/12/05 04:05:56;;;;;;;36.50;14.38;;;;;;;;;;5087093;28;20052;-60
2021/12/05 04:08:24;;;;;;;36.30;14.65;;;;;;;;;;5086134;28;20044;-60
2021/12/05 04:10:53;;;;;;;31.98;15.45;;;;;;;;;;5084654;28;20044;-60
2021/12/05 04:13:19;;;;;;;28.75;12.75;;;;;;;;;;5084575;28;20072;-60
2021/12/05 04:15:46;;;;;;;34.80;15.00;;;;;;;;;;5084448;28;20044;-61
2021/12/05 04:18:12;;;;;;;36.97;15.13;;;;;;;;;;5084899;28;20052;-59
2021/12/05 04:20:38;;;;;;;38.05;17.05;;;;;;;;;;5088017;28;20119;-60
2021/12/05 04:23:05;;;;;;;39.08;15.80;;;;;;;;;;5103251;28;20071;-59
2021/12/05 04:25:36;;;;;;;31.55;16.17;;;;;;;;;;5098380;28;20046;-61
2021/12/05 04:28:03;;;;;;;38.75;15.85;;;;;;;;;;5084257;28;20181;-60
2021/12/05 04:30:29;;;;;;;33.83;14.23;;;;;;;;;;5083928;28;20057;-59
2021/12/05 04:32:55;;;;;;;33.78;15.65;;;;;;;;;;5084435;28;20063;-61
2021/12/05 04:35:21;;;;;;;35.15;16.77;;;;;;;;;;5083763;28;20055;-61
2021/12/05 04:37:47;;;;;;;37.60;17.90;;;;;;;;;;5084519;28;20064;-60
2021/12/05 04:40:16;;;;;;;39.22;17.45;;;;;;;;;;5084334;28;20048;-60
2021/12/05 04:42:42;;;;;;;46.92;18.08;;;;;;;;;;5085721;28;20084;-60
2021/12/05 04:45:10;;;;;;;36.50;17.73;;;;;;;;;;5086476;28;20071;-60
2021/12/05 04:47:37;;;;;;;36.90;18.05;;;;;;;;;;5098027;28;20103;-60
2021/12/05 04:50:04;;;;;;;39.40;18.63;;;;;;;;;;5098311;28;20036;-60
2021/12/05 04:52:30;;;;;;;40.50;19.08;;;;;;;;;;5098560;28;20104;-60
2021/12/05 04:54:56;;;;;;;40.05;19.33;;;;;;;;;;5096813;28;20072;-60
2021/12/05 04:57:22;;;;;;;43.33;19.20;;;;;;;;;;5099328;28;20073;-61
2021/12/05 04:59:50;;;;;;;43.25;18.15;;;;;;;;;;5103710;28;20051;-60
2021/12/05 05:02:18;;;;;;;34.40;18.92;;;;;;;;;;5105317;28;20040;-61
2021/12/05 05:04:48;;;;;;;41.00;20.30;;;;;;;;;;5108959;28;20090;-60
2021/12/05 05:07:24;;;;;;;39.55;18.33;;;;;;;;;;5108306;28;20317;-60
2021/12/05 05:09:52;;;;;;;42.33;19.42;;;;;;;;;;5108644;28;20044;-60
2021/12/05 05:12:19;;;;;;;32.97;18.83;;;;;;;;;;5106542;28;20056;-60
2021/12/05 05:14:45;;;;;;;34.00;18.15;;;;;;;;;;5102342;28;20047;-60
2021/12/05 05:17:11;;;;;;;47.97;19.70;;;;;;;;;;5106790;28;20052;-61
2021/12/05 05:19:45;;;;;;;39.90;17.88;;;;;;;;;;5108444;28;20051;-60
2021/12/05 05:28:10;;;;;;;34.55;17.17;;;;;;;;;;5065389;28;20056;-61
2021/12/05 05:39:40;;;;;;;35.67;16.02;;;;;;;;;;5045308;28;20088;-60
2021/12/05 05:47:50;;;;;;;35.15;15.90;;;;;;;;;;5044960;28;20119;-59
2021/12/05 05:50:00;;;;;;;43.50;16.58;;;;;;;;;;5062316;28;20057;-59
2021/12/05 05:52:27;;;;;;;39.92;16.83;;;;;;;;;;5064341;28;20079;-61
2021/12/05 05:54:56;;;;;;;40.85;15.90;;;;;;;;;;5065153;28;20096;-61
2021/12/05 05:57:32;;;;;;;32.30;17.73;;;;;;;;;;5064677;28;20055;-61
2021/12/05 06:00:08;;;;;;;29.50;16.30;;;;;;;;;;5099560;28;20178;-61
2021/12/05 06:05:20;;;;;;;40.60;14.45;;;;;;;;;;5098565;28;20054;-61
2021/12/05 06:07:46;;;;;;;40.72;14.75;;;;;;;;;;5102640;28;20040;-61
2021/12/05 06:10:15;;;;;;;40.85;15.30;;;;;;;;;;5104940;28;20058;-61
2021/12/05 06:12:42;;;;;;;29.80;14.13;;;;;;;;;;5107017;28;20043;-61
2021/12/05 06:15:09;;;;;;;33.92;14.05;;;;;;;;;;5105090;28;20055;-61
2021/12/05 06:17:36;;;;;;;38.63;15.32;;;;;;;;;;5101018;28;20104;-61
2021/12/05 06:20:05;;;;;;;35.77;13.93;;;;;;;;;;5101691;28;20075;-61
2021/12/05 06:22:31;;;;;;;34.30;13.05;;;;;;;;;;5104148;28;20289;-61
2021/12/05 06:24:58;;;;;;;34.65;12.57;;;;;;;;;;5106170;28;20047;-62
2021/12/05 06:27:24;;;;;;;38.10;13.63;;;;;;;;;;5094799;28;20101;-61
2021/12/05 06:29:58;;;;;;;34.03;11.40;;;;;;;;;;5087323;28;20067;-61
2021/12/05 06:38:04;;;;;;;31.63;11.95;;;;;;;;;;5106122;28;20093;-61
2021/12/05 06:46:07;;;;;;;29.45;11.63;;;;;;;;;;5103542;28;20055;-62
2021/12/05 06:48:34;;;;;;;34.08;11.98;;;;;;;;;;5097255;28;20079;-61
2021/12/05 06:51:00;;;;;;;28.40;11.38;;;;;;;;;;5099335;28;20044;-61
2021/12/05 06:53:26;;;;;;;36.58;11.50;;;;;;;;;;5099896;28;20105;-61
2021/12/05 06:55:52;;;;;;;25.20;10.27;;;;;;;;;;5090239;28;20037;-61
2021/12/05 06:58:18;;;;;;;27.90;11.43;;;;;;;;;;5086066;28;20131;-60
2021/12/05 07:00:45;;;;;;;32.10;10.60;;;;;;;;;;5085966;28;20040;-60
2021/12/05 07:03:11;;;;;;;28.77;9.45;;;;;;;;;;5086206;28;20060;-60
2021/12/05 07:08:04;;;;;;;29.20;10.82;;;;;;;;;;5085735;28;20034;-60
2021/12/05 07:10:34;;;;;;;31.02;10.52;;;;;;;;;;5085679;28;20596;-60
2021/12/05 07:21:03;;;;;;;26.15;10.27;;;;;;;;;;5100509;28;20083;-61
2021/12/05 07:26:09;;;;;;;22.27;9.27;;;;;;;;;;5104771;28;20467;-60
2021/12/05 07:42:24;;;;;;;37.58;10.45;;;;;;;;;;5101096;28;20083;-60
2021/12/05 07:44:51;;;;;;;30.30;11.45;;;;;;;;;;5099178;28;20058;-60
2021/12/05 07:47:20;;;;;;;24.50;10.43;;;;;;;;;;5102730;28;20047;-61
2021/12/05 07:49:48;;;;;;;23.10;10.40;;;;;;;;;;5105098;28;20600;-61
2021/12/05 07:52:18;;;;;;;29.23;10.95;;;;;;;;;;5104578;28;20047;-62
2021/12/05 07:54:50;;;;;;;31.00;11.43;;;;;;;;;;5105349;28;20054;-60
2021/12/05 07:57:48;;;;;;;31.63;10.98;;;;;;;;;;5105028;28;20039;-60
2021/12/05 08:16:35;;;;;;;29.25;10.90;;;;;;;;;;5104781;28;20075;-60
2021/12/05 08:19:02;;;;;;;27.15;11.20;;;;;;;;;;5094263;28;20422;-61
2021/12/05 08:21:28;;;;;;;23.13;10.93;;;;;;;;;;5100326;28;20063;-61
2021/12/05 08:23:54;;;;;;;26.70;11.52;;;;;;;;;;5104684;28;20457;-62
2021/12/05 08:26:27;;;;;;;29.33;10.80;;;;;;;;;;5100510;28;20044;-61
2021/12/05 08:29:03;;;;;;;35.92;11.50;;;;;;;;;;5102771;28;20042;-62
2021/12/05 08:31:43;;;;;;;29.20;12.18;;;;;;;;;;5101755;28;20046;-61
2021/12/05 08:37:07;;;;;;;28.58;12.50;;;;;;;;;;5089083;28;20077;-61
2021/12/05 09:21:50;;;;;;;25.67;12.48;;;;;;;;;;5012645;28;20053;-62
2021/12/05 10:10:38;;;;;;;32.33;13.90;;;;;;;;;;5003413;28;20068;-63
2021/12/05 10:37:30;;;;;;;27.80;13.52;;;;;;;;;;5100903;28;20131;-64
2021/12/05 10:40:06;;;;;;;34.40;14.15;;;;;;;;;;5097073;28;20052;-63
2021/12/05 10:42:41;;;;;;;29.48;14.35;;;;;;;;;;5100213;28;20048;-63
2021/12/05 10:45:11;;;;;;;32.13;13.52;;;;;;;;;;5098197;28;20066;-63
2021/12/05 10:47:42;;;;;;;27.67;13.60;;;;;;;;;;5099433;28;20040;-63
2021/12/05 10:50:26;;;;;;;35.10;14.60;;;;;;;;;;5101338;28;20040;-64
2021/12/05 10:53:11;;;;;;;31.45;14.90;;;;;;;;;;5095380;28;20123;-64
2021/12/05 10:55:37;;;;;;;30.27;14.38;;;;;;;;;;5100901;28;20051;-65
2021/12/05 10:58:06;;;;;;;31.92;14.57;;;;;;;;;;5099507;28;20046;-64
2021/12/05 11:00:33;;;;;;;29.67;14.85;;;;;;;;;;5105347;28;20099;-64
2021/12/05 11:03:16;;;;;;;38.33;15.40;;;;;;;;;;5095839;28;20036;-64
2021/12/05 11:05:43;;;;;;;31.33;14.52;;;;;;;;;;5102855;28;20130;-64
2021/12/05 11:08:28;;;;;;;27.00;14.18;;;;;;;;;;5094667;28;20040;-63
2021/12/05 11:11:12;;;;;;;23.92;13.38;;;;;;;;;;5088279;28;20490;-64
2021/12/05 11:13:40;;;;;;;30.65;14.80;;;;;;;;;;5095236;28;20122;-64
2021/12/05 11:16:26;;;;;;;23.70;13.45;;;;;;;;;;5102895;28;20056;-64
2021/12/05 11:18:52;;;;;;;28.35;13.85;;;;;;;;;;5104878;28;20044;-63
2021/12/05 11:21:47;;;;;;;25.10;14.05;;;;;;;;;;5102974;28;20534;-63
2021/12/05 11:24:19;;;;;;;35.38;14.55;;;;;;;;;;5108364;28;20078;-63
2021/12/05 11:27:01;;;;;;;29.80;14.48;;;;;;;;;;5098967;28;20036;-63
2021/12/05 11:29:41;;;;;;;34.25;14.77;;;;;;;;;;5097693;28;21669;-64
2021/12/05 11:32:08;;;;;;;29.88;14.15;;;;;;;;;;5097264;28;20076;-63
2021/12/05 11:34:34;;;;;;;25.93;13.60;;;;;;;;;;5096574;28;20490;-64
2021/12/05 11:37:00;;;;;;;29.45;14.45;;;;;;;;;;5088942;28;20040;-64
2021/12/05 11:39:26;;;;;;;30.63;15.23;;;;;;;;;;5087197;28;20136;-64
2021/12/05 11:41:53;;;;;;;30.02;14.43;;;;;;;;;;5089325;28;20047;-63
2021/12/05 11:44:20;;;;;;;32.45;14.75;;;;;;;;;;5079202;28;20100;-64
2021/12/05 11:46:46;;;;;;;33.28;17.60;;;;;;;;;;5098086;28;20044;-63
2021/12/05 11:49:18;;;;;;;26.00;14.35;;;;;;;;;;5095000;28;20036;-64
2021/12/05 11:51:50;;;;;;;26.98;14.95;;;;;;;;;;5098177;28;20052;-64
2021/12/05 11:54:19;;;;;;;28.20;13.52;;;;;;;;;;5092209;28;20696;-63
2021/12/05 11:56:51;;;;;;;28.23;14.70;;;;;;;;;;5099004;28;20059;-64
2021/12/05 11:59:33;;;;;;;34.10;15.30;;;;;;;;;;5096488;28;20143;-62
2021/12/05 12:02:02;;;;;;;30.95;14.43;;;;;;;;;;5100545;28;20431;-64
2021/12/05 12:04:43;;;;;;;21.77;12.65;;;;;;;;;;5096939;28;20040;-64
2021/12/05 12:07:10;;;;;;;23.50;13.52;;;;;;;;;;5099927;28;20235;-64
2021/12/05 12:09:36;;;;;;;24.15;12.75;;;;;;;;;;5098783;28;20052;-63
2021/12/05 12:12:03;;;;;;;28.35;13.85;;;;;;;;;;5087241;28;20131;-64
2021/12/05 12:14:29;;;;;;;32.13;14.55;;;;;;;;;;5095153;28;20096;-64
2021/12/05 12:16:57;;;;;;;29.15;12.45;;;;;;;;;;5093975;28;20041;-63
2021/12/05 12:19:23;;;;;;;24.42;12.95;;;;;;;;;;5094656;28;20519;-65
2021/12/05 12:21:52;;;;;;;24.35;13.48;;;;;;;;;;5078226;28;20037;-62
2021/12/05 12:24:19;;;;;;;26.45;13.50;;;;;;;;;;5081089;28;20136;-64
2021/12/05 12:26:45;;;;;;;31.70;14.80;;;;;;;;;;5091702;28;20047;-62
2021/12/05 12:29:12;;;;;;;29.05;13.23;;;;;;;;;;5097455;28;20083;-69
2021/12/05 12:31:41;;;;;;;21.23;11.68;;;;;;;;;;5083066;28;20101;-62
2021/12/05 12:34:15;;;;;;;22.25;11.18;;;;;;;;;;5096524;28;20590;-63
2021/12/05 12:36:55;;;;;;;26.85;12.45;;;;;;;;;;5096551;28;20933;-64
2021/12/05 12:39:22;;;;;;;19.85;11.43;;;;;;;;;;5094726;28;20117;-63
2021/12/05 12:42:00;;;;;;;23.58;11.63;;;;;;;;;;5079884;28;20044;-63
2021/12/05 12:44:27;;;;;;;21.90;11.40;;;;;;;;;;5079905;28;20567;-63
2021/12/05 12:46:57;;;;;;;22.85;11.07;;;;;;;;;;5098619;28;20040;-64
2021/12/05 12:49:26;;;;;;;25.88;11.48;;;;;;;;;;5097828;28;20043;-63
2021/12/05 12:51:57;;;;;;;20.92;11.48;;;;;;;;;;5083000;28;20048;-63
2021/12/05 12:54:31;;;;;;;20.73;10.60;;;;;;;;;;5102912;28;20044;-62
2021/12/05 12:57:08;;;;;;;20.60;11.20;;;;;;;;;;5101737;28;20098;-63
2021/12/05 12:59:36;;;;;;;23.38;12.80;;;;;;;;;;5103182;28;20051;-63
2021/12/05 13:10:25;;;;;;;18.63;10.10;;;;;;;;;;5094751;28;20071;-62
2021/12/05 13:13:00;;;;;;;19.20;10.73;;;;;;;;;;5098735;28;20571;-63
2021/12/05 13:15:41;;;;;;;20.90;10.20;;;;;;;;;;5101145;28;20454;-63
2021/12/05 13:18:10;;;;;;;22.00;11.95;;;;;;;;;;5094832;28;20048;-66
2021/12/05 13:20:42;;;;;;;21.88;10.50;;;;;;;;;;5087143;28;20048;-71
2021/12/05 13:23:13;;;;;;;21.85;12.02;;;;;;;;;;5098662;28;20083;-70
2021/12/05 13:25:58;;;;;;;22.38;10.60;;;;;;;;;;5103589;28;20062;-71
2021/12/05 13:28:34;;;;;;;16.98;9.60;;;;;;;;;;5099390;28;20110;-70
2021/12/05 13:31:20;;;;;;;17.80;10.15;;;;;;;;;;5100321;28;20052;-78
2021/12/05 13:33:46;;;;;;;19.42;10.18;;;;;;;;;;5096331;28;20041;-63
2021/12/05 13:36:33;;;;;;;20.38;10.02;;;;;;;;;;5106949;28;20047;-62
2021/12/05 13:38:59;;;;;;;19.67;10.50;;;;;;;;;;5101403;28;20059;-62
2021/12/05 13:41:27;;;;;;;19.20;9.73;;;;;;;;;;5114943;28;20040;-62
2021/12/05 13:43:57;;;;;;;21.23;10.13;;;;;;;;;;5104801;28;20522;-63
2021/12/05 13:46:55;;;;;;;16.10;8.82;;;;;;;;;;5101084;28;20043;-63
2021/12/05 13:49:31;;;;;;;20.20;10.13;;;;;;;;;;5003736;28;20057;-62
2021/12/05 13:52:17;;;;;;;25.80;10.88;;;;;;;;;;5004745;28;20098;-63
2021/12/05 13:54:43;;;;;;;17.58;9.27;;;;;;;;;;5004119;28;20070;-63
2021/12/05 13:57:10;;;;;;;14.73;9.00;;;;;;;;;;5004540;28;20045;-62
2021/12/05 13:59:38;;;;;;;18.10;9.52;;;;;;;;;;5008428;28;20082;-63
2021/12/05 14:02:04;;;;;;;19.23;9.77;;;;;;;;;;5002751;28;20054;-64
2021/12/05 14:04:34;;;;;;;19.73;9.73;;;;;;;;;;5002069;28;20042;-63
2021/12/05 14:07:02;;;;;;;17.10;10.50;;;;;;;;;;5005545;28;20046;-62
2021/12/05 14:09:28;;;;;;;21.63;9.95;;;;;;;;;;5002929;28;20053;-63
2021/12/05 14:11:54;;;;;;;21.95;11.18;;;;;;;;;;5000171;28;20050;-63
2021/12/05 14:14:23;;;;;;;23.98;11.73;;;;;;;;;;5001535;28;20058;-63
2021/12/05 14:16:50;;;;;;;33.13;14.77;;;;;;;;;;5002842;28;20038;-63
2021/12/05 14:19:18;;;;;;;23.23;12.00;;;;;;;;;;5003088;28;20054;-63
2021/12/05 14:21:46;;;;;;;26.90;13.13;;;;;;;;;;5001401;28;20066;-63
2021/12/05 14:24:12;;;;;;;;;;;;;;;;;;5001923;28;20054;-62
2021/12/05 14:26:40;;;;;;;24.60;13.20;;;;;;;;;;5087294;28;19926;-64
2021/12/05 14:29:08;;;;;;;24.60;13.80;;;;;;;;;;5096835;28;20056;-62
2021/12/05 14:31:37;;;;;;;28.05;12.40;;;;;;;;;;5097767;28;20043;-63
2021/12/05 14:34:03;;;;;;;26.10;12.70;;;;;;;;;;5098284;28;20056;-63
2021/12/05 14:36:34;;;;;;;25.85;17.17;;;;;;;;;;5090815;28;20079;-63
2021/12/05 14:39:06;;;;;;;32.65;17.17;;;;;;;;;;5081480;28;20075;-63
2021/12/05 14:41:33;;;;;;;36.80;20.95;;;;;;;;;;5086778;28;20051;-64
2021/12/05 14:43:59;;;;;;;31.95;14.60;;;;;;;;;;5086463;28;20112;-63
2021/12/05 14:46:26;;;;;;;28.90;13.18;;;;;;;;;;5105754;28;20096;-63
2021/12/05 14:49:01;;;;;;;31.50;14.57;;;;;;;;;;5085308;28;20079;-64
2021/12/05 14:51:41;;;;;;;27.77;13.63;;;;;;;;;;5096335;28;20040;-63
2021/12/05 14:54:08;;;;;;;28.08;14.77;;;;;;;;;;5090538;28;20056;-72
2021/12/05 14:56:37;;;;;;;36.22;12.90;;;;;;;;;;5098830;28;20052;-65
2021/12/05 14:59:05;;;;;;;23.52;12.00;;;;;;;;;;5075139;28;20415;-65
2021/12/05 15:01:32;;;;;;;26.52;13.27;;;;;;;;;;5095791;28;20112;-65
2021/12/05 15:04:00;;;;;;;20.88;12.15;;;;;;;;;;5102014;28;20040;-65
2021/12/05 15:06:40;;;;;;;28.98;14.50;;;;;;;;;;5096510;28;20075;-64
2021/12/05 15:09:07;;;;;;;26.35;13.93;;;;;;;;;;5085887;28;20047;-66
2021/12/05 15:11:34;;;;;;;32.50;14.95;;;;;;;;;;5090563;28;20049;-64
2021/12/05 15:14:04;;;;;;;24.60;14.02;;;;;;;;;;5094818;28;20100;-64
2021/12/05 15:16:30;;;;;;;25.73;13.43;;;;;;;;;;5078323;28;20372;-64
2021/12/05 15:18:56;;;;;;;30.70;12.93;;;;;;;;;;5100548;28;20040;-64
2021/12/05 15:21:22;;;;;;;31.55;15.77;;;;;;;;;;5097884;28;20096;-64
2021/12/05 15:23:49;;;;;;;29.00;14.98;;;;;;;;;;5103207;28;20092;-65
2021/12/05 15:26:15;;;;;;;30.27;14.98;;;;;;;;;;5095285;28;20108;-64
2021/12/05 15:28:41;;;;;;;26.15;15.15;;;;;;;;;;5095685;28;20044;-65
2021/12/05 15:31:10;;;;;;;28.60;14.75;;;;;;;;;;5093885;28;20060;-64
2021/12/05 15:33:37;;;;;;;26.20;15.50;;;;;;;;;;5097741;28;20040;-65
2021/12/05 15:36:04;;;;;;;31.10;15.05;;;;;;;;;;5100506;28;20080;-66
2021/12/05 15:38:31;;;;;;;39.67;17.02;;;;;;;;;;5095229;28;20040;-70
2021/12/05 15:41:02;;;;;;;30.42;17.10;;;;;;;;;;5097408;28;20044;-67
2021/12/05 15:43:29;;;;;;;31.52;17.17;;;;;;;;;;5099494;28;20089;-80
2021/12/05 15:45:57;;;;;;;41.53;18.55;;;;;;;;;;5092779;28;20063;-81
2021/12/05 15:48:23;;;;;;;;;;;;;;;;;;5094513;28;20129;-67
2021/12/05 15:50:52;;;;;;;45.42;19.20;;;;;;;;;;5096364;28;19920;-67
2021/12/05 15:53:20;;;;;;;41.35;21.10;;;;;;;;;;5099657;28;20051;-67
2021/12/05 15:55:50;;;;;;;42.38;20.40;;;;;;;;;;5100164;28;20039;-67
2021/12/05 15:58:22;;;;;;;35.75;17.58;;;;;;;;;;5095587;28;20048;-67
2021/12/05 16:00:54;;;;;;;37.53;20.08;;;;;;;;;;5096592;28;20044;-67
2021/12/05 16:03:25;;;;;;;36.22;20.48;;;;;;;;;;5102377;28;20051;-67
2021/12/05 16:05:55;;;;;;;49.00;23.20;;;;;;;;;;5095368;28;20044;-68
2021/12/05 16:08:22;;;;;;;38.15;19.17;;;;;;;;;;5097361;28;20099;-68
2021/12/05 16:10:57;;;;;;;46.05;23.77;;;;;;;;;;5072834;28;20098;-68
2021/12/05 16:13:25;;;;;;;44.28;21.50;;;;;;;;;;5103245;28;20141;-68
2021/12/05 16:15:55;;;;;;;37.08;18.45;;;;;;;;;;5098553;28;20106;-67
2021/12/05 16:18:30;;;;;;;24.63;13.23;;;;;;;;;;5090282;28;20538;-70
2021/12/05 16:21:02;;;;;;;35.15;17.95;;;;;;;;;;5079562;28;20457;-71
2021/12/05 16:23:47;;;;;;;32.75;18.83;;;;;;;;;;5077232;28;20049;-71
2021/12/05 16:26:13;;;;;;;41.05;21.70;;;;;;;;;;5086775;28;20055;-67
2021/12/05 16:28:44;;;;;;;41.67;22.33;;;;;;;;;;5080448;28;20523;-67
2021/12/05 16:31:37;;;;;;;44.15;22.15;;;;;;;;;;5055844;28;20045;-68
2021/12/05 16:34:05;;;;;;;46.90;22.58;;;;;;;;;;5049368;28;20060;-69
2021/12/05 16:36:40;;;;;;;40.08;21.95;;;;;;;;;;5057973;28;20053;-68
2021/12/05 16:39:11;;;;;;;38.70;22.27;;;;;;;;;;5058716;28;20049;-69
2021/12/05 16:41:39;;;;;;;41.25;22.98;;;;;;;;;;5066069;28;20041;-75
2021/12/05 16:44:09;;;;;;;36.00;20.52;;;;;;;;;;5060615;28;20080;-74
2021/12/05 16:46:46;;;;;;;36.28;18.70;;;;;;;;;;5060185;28;20036;-74
2021/12/05 16:49:13;;;;;;;39.50;21.17;;;;;;;;;;5055203;28;20080;-74
2021/12/05 16:51:45;;;;;;;36.85;20.88;;;;;;;;;;5065377;28;20045;-71
2021/12/05 16:54:15;;;;;;;43.42;24.10;;;;;;;;;;5053766;28;20080;-74
2021/12/05 16:56:46;;;;;;;31.45;19.15;;;;;;;;;;5060518;28;20132;-78
2021/12/05 16:59:18;;;;;;;50.08;25.33;;;;;;;;;;5057159;28;20053;-76
2021/12/05 17:01:45;;;;;;;42.08;21.60;;;;;;;;;;5066726;28;20048;-76
2021/12/05 17:04:12;;;;;;;39.97;22.60;;;;;;;;;;5061296;28;20108;-76
2021/12/05 17:06:45;;;;;;;40.08;22.88;;;;;;;;;;5057894;28;20041;-76
2021/12/05 17:09:12;;;;;;;42.30;22.45;;;;;;;;;;5059209;28;20479;-75
2021/12/05 17:11:38;;;;;;;41.50;23.93;;;;;;;;;;5053327;28;20076;-76
2021/12/05 17:14:05;;;;;;;43.58;23.67;;;;;;;;;;5052124;28;20045;-76
2021/12/05 17:16:32;;;;;;;40.35;22.63;;;;;;;;;;5057809;28;20057;-75
2021/12/05 17:19:01;;;;;;;40.03;22.92;;;;;;;;;;5062345;28;20051;-76
2021/12/05 17:21:38;;;;;;;44.25;23.40;;;;;;;;;;5062999;28;20053;-75
2021/12/05 17:24:12;;;;;;;45.65;24.50;;;;;;;;;;5057529;28;20045;-76
2021/12/05 17:26:40;;;;;;;44.53;24.77;;;;;;;;;;5056387;28;20045;-76
2021/12/05 17:29:12;;;;;;;31.40;15.70;;;;;;;;;;5055087;28;20108;-76
2021/12/05 17:31:43;;;;;;;46.40;24.70;;;;;;;;;;5099235;28;20044;-76
2021/12/05 17:34:11;;;;;;;43.63;24.27;;;;;;;;;;5091987;28;20058;-75
2021/12/05 17:36:37;;;;;;;;;;;;;;;;;;5100770;28;20038;-76
2021/12/05 17:39:09;;;;;;;36.05;21.95;;;;;;;;;;5095793;28;19967;-75
2021/12/05 17:41:35;;;;;;;49.08;24.40;;;;;;;;;;5095286;28;20051;-75
2021/12/05 17:44:03;;;;;;;40.22;21.05;;;;;;;;;;5098622;28;20079;-74
2021/12/05 17:46:31;;;;;;;35.28;21.83;;;;;;;;;;5100558;28;20052;-76
2021/12/05 17:48:58;;;;;;;39.17;21.60;;;;;;;;;;5096739;28;20044;-75
2021/12/05 17:51:32;;;;;;;36.30;20.85;;;;;;;;;;5097031;28;20051;-66
2021/12/05 17:53:58;;;;;;;40.75;24.10;;;;;;;;;;5096876;28;20052;-64
2021/12/05 18:04:52;;;;;;;39.38;21.75;;;;;;;;;;5039191;28;20052;-68
2021/12/05 18:07:19;;;;;;;40.17;23.20;;;;;;;;;;5039694;28;20072;-69
2021/12/05 18:09:46;;;;;;;36.85;20.33;;;;;;;;;;5021102;28;20068;-68
2021/12/05 18:12:20;;;;;;;34.72;19.42;;;;;;;;;;5024064;28;20057;-70
2021/12/05 18:14:46;;;;;;;40.15;21.88;;;;;;;;;;5042088;28;20063;-72
2021/12/05 18:17:12;;;;;;;38.40;19.88;;;;;;;;;;5041785;28;20049;-71
2021/12/05 18:19:39;;;;;;;38.00;21.63;;;;;;;;;;5040802;28;20121;-72
2021/12/05 18:22:05;;;;;;;35.97;21.77;;;;;;;;;;5023680;28;20068;-75
2021/12/05 18:24:32;;;;;;;40.92;23.27;;;;;;;;;;5027385;28;20084;-68
2021/12/05 18:26:58;;;;;;;38.25;23.17;;;;;;;;;;5040393;28;20064;-66
2021/12/05 18:29:24;;;;;;;70.90;29.95;;;;;;;;;;5038380;28;20049;-68
2021/12/05 18:31:52;;;;;;;38.30;21.25;;;;;;;;;;5007756;28;20055;-68
2021/12/05 18:34:22;;;;;;;35.88;22.25;;;;;;;;;;5051507;28;20079;-68
2021/12/05 18:36:50;;;;;;;40.22;24.63;;;;;;;;;;5082819;28;20056;-68
2021/12/05 18:39:23;;;;;;;40.15;23.92;;;;;;;;;;5100722;28;20048;-66
2021/12/05 18:41:50;;;;;;;38.90;21.50;;;;;;;;;;5100382;28;20423;-66
2021/12/05 18:44:20;;;;;;;41.45;23.17;;;;;;;;;;5081491;28;20047;-70
2021/12/05 18:46:47;;;;;;;38.25;22.35;;;;;;;;;;5085354;28;20044;-70
2021/12/05 18:49:14;;;;;;;35.45;22.52;;;;;;;;;;5101950;28;20099;-69
2021/12/05 18:51:41;;;;;;;27.85;18.40;;;;;;;;;;5103485;28;20072;-70
2021/12/05 18:54:07;;;;;;;32.78;20.55;;;;;;;;;;5101900;28;20211;-67
2021/12/05 18:56:34;;;;;;;33.42;20.65;;;;;;;;;;5099778;28;20756;-72
2021/12/05 18:59:00;;;;;;;32.95;20.58;;;;;;;;;;5085871;28;20043;-77
2021/12/05 19:04:36;;;;;;;30.98;18.08;;;;;;;;;;5095836;28;20060;-67
2021/12/05 19:07:07;;;;;;;34.33;21.13;;;;;;;;;;5096908;28;20044;-71
2021/12/05 19:12:16;;;;;;;39.38;23.25;;;;;;;;;;5099196;28;20475;-71
2021/12/05 19:14:45;;;;;;;33.75;21.83;;;;;;;;;;5101667;28;20043;-71
2021/12/05 19:17:14;;;;;;;35.55;20.45;;;;;;;;;;5099307;28;20072;-68
2021/12/05 19:19:42;;;;;;;29.63;17.30;;;;;;;;;;5083530;28;20048;-68
2021/12/05 19:22:10;;;;;;;31.73;20.15;;;;;;;;;;5083886;28;20048;-67
2021/12/05 19:24:36;;;;;;;36.50;21.30;;;;;;;;;;5094265;28;20056;-67
2021/12/05 19:27:03;;;;;;;31.52;18.80;;;;;;;;;;5097547;28;20083;-69
2021/12/05 19:29:30;;;;;;;28.70;17.98;;;;;;;;;;5081826;28;20322;-67
2021/12/05 19:31:57;;;;;;;32.13;20.35;;;;;;;;;;5099457;28;20073;-67
2021/12/05 19:34:24;;;;;;;34.30;21.17;;;;;;;;;;5082287;28;20048;-71
2021/12/05 19:36:50;;;;;;;34.28;22.10;;;;;;;;;;5081196;28;20328;-71
2021/12/05 19:39:18;;;;;;;33.63;21.45;;;;;;;;;;5081690;28;20050;-72
2021/12/05 19:41:44;;;;;;;;;;;;;;;;;;5100137;28;20071;-72
2021/12/05 19:44:10;;;;;;;33.72;19.73;;;;;;;;;;5093900;28;19921;-73
2021/12/05 19:46:37;;;;;;;29.10;19.58;;;;;;;;;;5082986;28;20570;-72
2021/12/05 19:49:05;;;;;;;31.48;17.05;;;;;;;;;;5097013;28;20044;-73
2021/12/05 19:51:31;;;;;;;25.98;15.55;;;;;;;;;;5080990;28;20048;-72
2021/12/05 19:53:58;;;;;;;21.80;15.23;;;;;;;;;;5096003;28;20073;-72
2021/12/05 19:56:25;;;;;;;25.92;18.70;;;;;;;;;;5081130;28;20044;-73
2021/12/05 19:58:51;;;;;;;27.23;18.40;;;;;;;;;;5096435;28;20100;-73
2021/12/05 20:01:18;;;;;;;18.00;11.90;;;;;;;;;;5083985;28;20298;-73